Time,TemperatureF,DewpointF,PressureIn,WindDirection,WindDirectionDegrees,WindSpeedMPH,WindSpeedGustMPH,Humidity,HourlyPrecipIn,Conditions,Clouds,dailyrainin,SoftwareType,DateUTC
2013-03-28 00:04:00,43.0,40.0,30.16,NE,45,0.0,-999.0,89,-99.99,,,0.00,Acu-Link.com,2013-03-28 05:04:00,
2013-03-28 00:19:00,41.9,39.7,30.15,NNW,337,0.0,-999.0,92,-99.99,,,0.00,Acu-Link.com,2013-03-28 05:19:00,
2013-03-28 00:34:00,41.7,40.1,30.16,WNW,292,0.0,-999.0,94,-99.99,,,0.00,Acu-Link.com,2013-03-28 05:34:00,
2013-03-28 00:50:00,41.4,40.0,30.15,NW,315,0.0,-999.0,95,-99.99,,,0.00,Acu-Link.com,2013-03-28 05:50:00,
2013-03-28 01:05:00,40.8,39.5,30.16,ENE,67,0.0,-999.0,95,-99.99,,,0.00,Acu-Link.com,2013-03-28 06:05:00,
2013-03-28 01:20:00,40.3,38.7,30.16,ENE,67,0.0,-999.0,94,-99.99,,,0.00,Acu-Link.com,2013-03-28 06:20:00,
2013-03-28 01:35:00,39.7,37.9,30.16,South,180,0.0,-999.0,93,-99.99,,,0.00,Acu-Link.com,2013-03-28 06:35:00,
2013-03-28 02:06:00,38.7,37.1,30.15,South,180,0.0,-999.0,94,-99.99,,,0.00,Acu-Link.com,2013-03-28 07:06:00,
2013-03-28 02:21:00,38.5,37.7,30.15,SE,135,0.0,-999.0,97,-99.99,,,0.00,Acu-Link.com,2013-03-28 07:21:00,
2013-03-28 02:36:00,38.1,37.1,30.14,WSW,247,0.0,-999.0,96,-99.99,,,0.00,Acu-Link.com,2013-03-28 07:36:00,
2013-03-28 02:52:00,38.7,38.1,30.14,NNE,22,0.0,-999.0,98,-99.99,,,0.00,Acu-Link.com,2013-03-28 07:52:00,
2013-03-28 03:07:00,38.7,38.1,30.15,NNE,22,0.0,-999.0,98,-99.99,,,0.00,Acu-Link.com,2013-03-28 08:07:00,
2013-03-28 03:22:00,39.0,38.5,30.14,North,0,0.0,-999.0,98,-99.99,,,0.00,Acu-Link.com,2013-03-28 08:22:00,
2013-03-28 03:37:00,39.9,39.7,30.14,NNE,22,0.0,-999.0,99,-99.99,,,0.00,Acu-Link.com,2013-03-28 08:37:00,
2013-03-28 03:52:00,40.8,40.6,30.14,NE,45,0.0,-999.0,99,-99.99,,,0.00,Acu-Link.com,2013-03-28 08:52:00,
2013-03-28 04:07:00,41.5,41.3,30.13,NNE,22,0.0,-999.0,99,-99.99,,,0.00,Acu-Link.com,2013-03-28 09:07:00,
2013-03-28 04:22:00,41.9,41.6,30.13,ESE,112,0.0,-999.0,99,-99.99,,,0.00,Acu-Link.com,2013-03-28 09:22:00,
2013-03-28 04:38:00,42.3,42.0,30.13,East,90,0.0,-999.0,99,-99.99,,,0.00,Acu-Link.com,2013-03-28 09:38:00,
2013-03-28 04:53:00,42.6,42.4,30.12,NW,315,0.0,-999.0,99,-99.99,,,0.00,Acu-Link.com,2013-03-28 09:53:00,
2013-03-28 05:08:00,43.0,42.7,30.13,NE,45,1.6,-999.0,99,-99.99,,,0.00,Acu-Link.com,2013-03-28 10:08:00,
2013-03-28 05:23:00,43.5,43.3,30.13,ENE,67,2.7,-999.0,99,-99.99,,,0.00,Acu-Link.com,2013-03-28 10:23:00,
2013-03-28 05:39:00,43.9,43.6,30.14,NNE,22,2.2,-999.0,99,-99.99,,,0.00,Acu-Link.com,2013-03-28 10:39:00,
2013-03-28 05:54:00,44.2,43.7,30.14,NW,315,2.2,-999.0,98,-99.99,,,0.00,Acu-Link.com,2013-03-28 10:54:00,
2013-03-28 06:09:00,44.4,43.6,30.15,NNE,22,2.2,-999.0,97,-99.99,,,0.00,Acu-Link.com,2013-03-28 11:09:00,
2013-03-28 06:24:00,44.6,43.8,30.15,NE,45,2.2,-999.0,97,-99.99,,,0.00,Acu-Link.com,2013-03-28 11:24:00,
2013-03-28 06:40:00,45.0,44.2,30.15,ENE,67,1.6,-999.0,97,-99.99,,,0.00,Acu-Link.com,2013-03-28 11:40:00,
2013-03-28 06:55:00,45.0,44.2,30.16,NNE,22,1.6,-999.0,97,-99.99,,,0.00,Acu-Link.com,2013-03-28 11:55:00,
2013-03-28 07:10:00,45.0,43.9,30.16,NNE,22,2.2,-999.0,96,-99.99,,,0.00,Acu-Link.com,2013-03-28 12:10:00,
2013-03-28 07:26:00,45.0,43.6,30.17,North,0,1.6,-999.0,95,-99.99,,,0.00,Acu-Link.com,2013-03-28 12:26:00,
2013-03-28 07:56:00,45.7,43.8,30.18,NE,45,1.6,-999.0,93,-99.99,,,0.00,Acu-Link.com,2013-03-28 12:56:00,
2013-03-28 08:11:00,46.6,43.8,30.18,ENE,67,1.6,-999.0,90,-99.99,,,0.00,Acu-Link.com,2013-03-28 13:11:00,
2013-03-28 08:26:00,47.7,44.6,30.19,East,90,2.7,-999.0,89,-99.99,,,0.00,Acu-Link.com,2013-03-28 13:26:00,
2013-03-28 08:42:00,48.7,45.0,30.19,North,0,3.8,-999.0,87,-99.99,,,0.00,Acu-Link.com,2013-03-28 13:42:00,
2013-03-28 08:57:00,50.4,46.0,30.19,SE,135,2.2,-999.0,85,-99.99,,,0.00,Acu-Link.com,2013-03-28 13:57:00,
2013-03-28 09:12:00,52.2,47.2,30.20,NE,45,1.6,-999.0,83,-99.99,,,0.00,Acu-Link.com,2013-03-28 14:12:00,
2013-03-28 09:27:00,54.0,47.6,30.21,ESE,112,3.1,-999.0,79,-99.99,,,0.00,Acu-Link.com,2013-03-28 14:27:00,
2013-03-28 09:43:00,55.4,46.9,30.21,ENE,67,3.8,-999.0,73,-99.99,,,0.00,Acu-Link.com,2013-03-28 14:43:00,
2013-03-28 09:58:00,56.1,47.2,30.21,East,90,3.1,-999.0,72,-99.99,,,0.00,Acu-Link.com,2013-03-28 14:58:00,
2013-03-28 10:13:00,58.1,47.6,30.21,NE,45,3.1,-999.0,68,-99.99,,,0.00,Acu-Link.com,2013-03-28 15:13:00,
2013-03-28 10:28:00,58.6,48.1,30.22,SSE,157,0.0,-999.0,68,-99.99,,,0.00,Acu-Link.com,2013-03-28 15:28:00,
2013-03-28 10:44:00,60.8,48.1,30.22,SSE,157,2.7,-999.0,63,-99.99,,,0.00,Acu-Link.com,2013-03-28 15:44:00,
2013-03-28 10:59:00,60.1,47.4,30.22,ESE,112,1.6,-999.0,63,-99.99,,,0.00,Acu-Link.com,2013-03-28 15:59:00,
2013-03-28 11:14:00,62.4,47.9,30.21,East,90,2.7,-999.0,59,-99.99,,,0.00,Acu-Link.com,2013-03-28 16:14:00,
2013-03-28 11:30:00,60.6,47.5,30.21,NNE,22,2.7,-999.0,62,-99.99,,,0.00,Acu-Link.com,2013-03-28 16:30:00,
2013-03-28 11:45:00,60.4,47.8,30.21,ENE,67,2.7,-999.0,63,-99.99,,,0.00,Acu-Link.com,2013-03-28 16:45:00,
2013-03-28 12:00:00,60.6,47.1,30.21,ENE,67,2.7,-999.0,61,-99.99,,,0.00,Acu-Link.com,2013-03-28 17:00:00,
2013-03-28 12:15:00,62.2,48.2,30.20,ESE,112,2.2,-999.0,60,-99.99,,,0.00,Acu-Link.com,2013-03-28 17:15:00,
2013-03-28 12:31:00,63.7,47.2,30.19,ESE,112,4.3,-999.0,55,-99.99,,,0.00,Acu-Link.com,2013-03-28 17:31:00,
2013-03-28 13:01:00,64.4,45.4,30.19,WSW,247,2.7,-999.0,50,-99.99,,,0.00,Acu-Link.com,2013-03-28 18:01:00,
2013-03-28 13:16:00,65.5,46.9,30.18,SE,135,2.7,-999.0,51,-99.99,,,0.00,Acu-Link.com,2013-03-28 18:16:00,
2013-03-28 13:32:00,66.0,46.3,30.17,NNE,22,4.3,-999.0,49,-99.99,,,0.00,Acu-Link.com,2013-03-28 18:32:00,
2013-03-28 13:47:00,68.4,47.9,30.17,ESE,112,3.1,-999.0,48,-99.99,,,0.00,Acu-Link.com,2013-03-28 18:47:00,
2013-03-28 14:02:00,68.5,46.9,30.15,ENE,67,2.7,-999.0,46,-99.99,,,0.00,Acu-Link.com,2013-03-28 19:02:00,
2013-03-28 14:17:00,68.7,47.1,30.14,SSE,157,5.8,-999.0,46,-99.99,,,0.00,Acu-Link.com,2013-03-28 19:17:00,
2013-03-28 14:33:00,70.3,46.8,30.13,ENE,67,1.6,-999.0,43,-99.99,,,0.00,Acu-Link.com,2013-03-28 19:33:00,
2013-03-28 14:48:00,70.0,46.4,30.13,SSE,157,3.8,-999.0,43,-99.99,,,0.00,Acu-Link.com,2013-03-28 19:48:00,
2013-03-28 15:03:00,70.2,45.4,30.12,NE,45,3.1,-999.0,41,-99.99,,,0.00,Acu-Link.com,2013-03-28 20:03:00,
2013-03-28 15:19:00,69.4,44.1,30.11,NW,315,2.7,-999.0,40,-99.99,,,0.00,Acu-Link.com,2013-03-28 20:19:00,
2013-03-28 15:34:00,71.6,46.0,30.11,NNW,337,2.2,-999.0,40,-99.99,,,0.00,Acu-Link.com,2013-03-28 20:34:00,
2013-03-28 15:49:00,71.4,43.8,30.09,SE,135,5.8,-999.0,37,-99.99,,,0.00,Acu-Link.com,2013-03-28 20:49:00,
2013-03-28 16:04:00,71.6,43.9,30.09,SE,135,3.8,-999.0,37,-99.99,,,0.00,Acu-Link.com,2013-03-28 21:04:00,
2013-03-28 16:20:00,71.6,43.9,30.09,South,180,5.8,-999.0,37,-99.99,,,0.00,Acu-Link.com,2013-03-28 21:20:00,
2013-03-28 16:35:00,70.9,42.6,30.08,SSE,157,2.2,-999.0,36,-99.99,,,0.00,Acu-Link.com,2013-03-28 21:35:00,
2013-03-28 16:50:00,70.9,38.7,30.08,South,180,3.1,-999.0,31,-99.99,,,0.00,Acu-Link.com,2013-03-28 21:50:00,
2013-03-28 17:05:00,70.7,40.9,30.08,SSE,157,4.7,-999.0,34,-99.99,,,0.00,Acu-Link.com,2013-03-28 22:05:00,
2013-03-28 17:20:00,70.5,43.7,30.08,SSE,157,3.1,-999.0,38,-99.99,,,0.00,Acu-Link.com,2013-03-28 22:20:00,
2013-03-28 17:51:00,70.2,44.7,30.08,SSE,157,2.7,-999.0,40,-99.99,,,0.00,Acu-Link.com,2013-03-28 22:51:00,
2013-03-28 18:22:00,70.5,43.7,30.08,SSE,157,3.8,-999.0,38,-99.99,,,0.00,Acu-Link.com,2013-03-28 23:22:00,
2013-03-28 18:37:00,69.3,44.5,30.09,SSW,202,3.1,-999.0,41,-99.99,,,0.00,Acu-Link.com,2013-03-28 23:37:00,
2013-03-28 18:52:00,67.8,45.7,30.08,South,180,2.7,-999.0,45,-99.99,,,0.00,Acu-Link.com,2013-03-28 23:52:00,
2013-03-28 19:08:00,66.6,45.7,30.09,South,180,2.7,-999.0,47,-99.99,,,0.00,Acu-Link.com,2013-03-29 00:08:00,
2013-03-28 19:23:00,63.7,46.7,30.09,SSW,202,4.7,-999.0,54,-99.99,,,0.00,Acu-Link.com,2013-03-29 00:23:00,
2013-03-28 19:38:00,62.2,50.7,30.10,South,180,5.8,-999.0,66,-99.99,,,0.00,Acu-Link.com,2013-03-29 00:38:00,
2013-03-28 19:53:00,62.1,51.8,30.10,South,180,8.3,-999.0,69,-99.99,,,0.00,Acu-Link.com,2013-03-29 00:53:00,
2013-03-28 20:09:00,61.5,51.6,30.10,South,180,6.7,-999.0,70,-99.99,,,0.00,Acu-Link.com,2013-03-29 01:09:00,
2013-03-28 20:24:00,60.1,51.4,30.11,SSW,202,4.7,-999.0,73,-99.99,,,0.00,Acu-Link.com,2013-03-29 01:24:00,
2013-03-28 20:39:00,57.9,51.1,30.11,South,180,3.8,-999.0,78,-99.99,,,0.00,Acu-Link.com,2013-03-29 01:39:00,
2013-03-28 20:55:00,58.6,51.4,30.11,SSE,157,4.3,-999.0,77,-99.99,,,0.00,Acu-Link.com,2013-03-29 01:55:00,
2013-03-28 21:10:00,58.1,51.3,30.11,SSE,157,2.7,-999.0,78,-99.99,,,0.00,Acu-Link.com,2013-03-29 02:10:00,
2013-03-28 21:25:00,57.2,51.4,30.12,South,180,3.8,-999.0,81,-99.99,,,0.00,Acu-Link.com,2013-03-29 02:25:00,
2013-03-28 21:40:00,56.7,51.6,30.13,SW,225,3.1,-999.0,83,-99.99,,,0.00,Acu-Link.com,2013-03-29 02:40:00,
2013-03-28 21:56:00,56.1,52.0,30.13,South,180,4.3,-999.0,86,-99.99,,,0.00,Acu-Link.com,2013-03-29 02:56:00,
2013-03-28 22:26:00,55.4,52.2,30.13,ESE,112,2.7,-999.0,89,-99.99,,,0.00,Acu-Link.com,2013-03-29 03:26:00,
2013-03-28 22:41:00,55.2,52.3,30.14,SE,135,3.1,-999.0,90,-99.99,,,0.00,Acu-Link.com,2013-03-29 03:41:00,
2013-03-28 22:57:00,54.9,52.0,30.14,South,180,3.1,-999.0,90,-99.99,,,0.00,Acu-Link.com,2013-03-29 03:57:00,
2013-03-28 23:12:00,54.3,51.7,30.14,SSE,157,2.2,-999.0,91,-99.99,,,0.00,Acu-Link.com,2013-03-29 04:12:00,
2013-03-28 23:27:00,54.0,51.7,30.14,South,180,0.0,-999.0,92,-99.99,,,0.00,Acu-Link.com,2013-03-29 04:27:00,
2013-03-28 23:43:00,53.1,51.1,30.14,ESE,112,0.0,-999.0,93,-99.99,,,0.00,Acu-Link.com,2013-03-29 04:43:00,
2013-03-28 23:58:00,51.8,49.8,30.14,East,90,0.0,-999.0,93,-99.99,,,0.00,Acu-Link.com,2013-03-29 04:58:00,